sensor_id;sensor_type;location;lat;lon;timestamp;temperature;humidity
58261;DHT22;44058;52.898;6.502;2022-07-04T00:02:18;15.30;99.90
58261;DHT22;44058;52.898;6.502;2022-07-04T00:04:44;15.20;99.90
58261;DHT22;44058;52.898;6.502;2022-07-04T00:07:09;15.30;99.90
58261;DHT22;44058;52.898;6.502;2022-07-04T00:09:35;15.30;99.90
58261;DHT22;44058;52.898;6.502;2022-07-04T00:12:00;15.30;99.90
58261;DHT22;44058;52.898;6.502;2022-07-04T00:14:26;15.20;99.90
58261;DHT22;44058;52.898;6.502;2022-07-04T00:16:52;15.10;99.90
58261;DHT22;44058;52.898;6.502;2022-07-04T00:19:17;15.00;99.90
58261;DHT22;44058;52.898;6.502;2022-07-04T00:21:43;15.10;99.90
58261;DHT22;44058;52.898;6.502;2022-07-04T00:24:09;15.10;99.90
58261;DHT22;44058;52.898;6.502;2022-07-04T00:26:35;15.10;99.90
58261;DHT22;44058;52.898;6.502;2022-07-04T00:29:00;15.00;99.90
58261;DHT22;44058;52.898;6.502;2022-07-04T00:31:26;15.00;99.90
58261;DHT22;44058;52.898;6.502;2022-07-04T00:33:51;15.00;99.90
58261;DHT22;44058;52.898;6.502;2022-07-04T00:36:17;15.00;99.90
58261;DHT22;44058;52.898;6.502;2022-07-04T00:38:43;14.90;99.90
58261;DHT22;44058;52.898;6.502;2022-07-04T00:41:08;14.90;99.90
58261;DHT22;44058;52.898;6.502;2022-07-04T00:43:34;14.90;99.90
58261;DHT22;44058;52.898;6.502;2022-07-04T00:46:03;14.80;99.90
58261;DHT22;44058;52.898;6.502;2022-07-04T00:48:28;14.80;99.90
58261;DHT22;44058;52.898;6.502;2022-07-04T00:50:54;14.70;99.90
58261;DHT22;44058;52.898;6.502;2022-07-04T00:53:21;14.70;99.90
58261;DHT22;44058;52.898;6.502;2022-07-04T00:55:49;14.70;99.90
58261;DHT22;44058;52.898;6.502;2022-07-04T00:58:14;14.70;99.90
58261;DHT22;44058;52.898;6.502;2022-07-04T01:00:42;14.70;99.90
58261;DHT22;44058;52.898;6.502;2022-07-04T01:03:08;14.60;99.90
58261;DHT22;44058;52.898;6.502;2022-07-04T01:05:34;14.60;99.90
58261;DHT22;44058;52.898;6.502;2022-07-04T01:08:00;14.70;99.90
58261;DHT22;44058;52.898;6.502;2022-07-04T01:10:26;14.70;99.90
58261;DHT22;44058;52.898;6.502;2022-07-04T01:12:52;14.60;99.90
58261;DHT22;44058;52.898;6.502;2022-07-04T01:15:17;14.60;99.90
58261;DHT22;44058;52.898;6.502;2022-07-04T01:17:43;14.60;99.90
58261;DHT22;44058;52.898;6.502;2022-07-04T01:20:10;14.60;99.90
58261;DHT22;44058;52.898;6.502;2022-07-04T01:22:36;14.60;99.90
58261;DHT22;44058;52.898;6.502;2022-07-04T01:25:02;14.60;99.90
58261;DHT22;44058;52.898;6.502;2022-07-04T01:27:28;14.70;99.90
58261;DHT22;44058;52.898;6.502;2022-07-04T01:29:54;14.60;99.90
58261;DHT22;44058;52.898;6.502;2022-07-04T01:32:19;14.50;99.90
58261;DHT22;44058;52.898;6.502;2022-07-04T01:34:45;14.50;99.90
58261;DHT22;44058;52.898;6.502;2022-07-04T01:37:10;14.40;99.90
58261;DHT22;44058;52.898;6.502;2022-07-04T01:39:36;14.40;99.90
58261;DHT22;44058;52.898;6.502;2022-07-04T01:42:02;14.40;99.90
58261;DHT22;44058;52.898;6.502;2022-07-04T01:44:28;14.40;99.90
58261;DHT22;44058;52.898;6.502;2022-07-04T01:46:54;14.40;99.90
58261;DHT22;44058;52.898;6.502;2022-07-04T01:49:20;14.30;99.90
58261;DHT22;44058;52.898;6.502;2022-07-04T01:51:46;14.10;99.90
58261;DHT22;44058;52.898;6.502;2022-07-04T01:54:12;14.20;99.90
58261;DHT22;44058;52.898;6.502;2022-07-04T01:56:38;14.10;99.90
58261;DHT22;44058;52.898;6.502;2022-07-04T01:59:04;14.20;99.90
58261;DHT22;44058;52.898;6.502;2022-07-04T02:01:29;14.20;99.90
58261;DHT22;44058;52.898;6.502;2022-07-04T02:03:56;14.20;99.90
58261;DHT22;44058;52.898;6.502;2022-07-04T02:06:21;14.20;99.90
58261;DHT22;44058;52.898;6.502;2022-07-04T02:08:47;14.10;99.90
58261;DHT22;44058;52.898;6.502;2022-07-04T02:11:31;14.10;99.90
58261;DHT22;44058;52.898;6.502;2022-07-04T02:14:17;14.10;99.90
58261;DHT22;44058;52.898;6.502;2022-07-04T02:16:42;14.10;99.90
58261;DHT22;44058;52.898;6.502;2022-07-04T02:19:08;14.00;99.90
58261;DHT22;44058;52.898;6.502;2022-07-04T02:21:33;13.90;99.90
58261;DHT22;44058;52.898;6.502;2022-07-04T02:23:59;13.90;99.90
58261;DHT22;44058;52.898;6.502;2022-07-04T02:26:25;13.90;99.90
58261;DHT22;44058;52.898;6.502;2022-07-04T02:28:51;14.00;99.90
58261;DHT22;44058;52.898;6.502;2022-07-04T02:31:17;14.00;99.90
58261;DHT22;44058;52.898;6.502;2022-07-04T02:33:43;14.00;99.90
58261;DHT22;44058;52.898;6.502;2022-07-04T02:36:08;13.90;99.90
58261;DHT22;44058;52.898;6.502;2022-07-04T02:38:34;13.70;99.90
58261;DHT22;44058;52.898;6.502;2022-07-04T02:41:00;13.50;99.90
58261;DHT22;44058;52.898;6.502;2022-07-04T02:43:25;13.40;99.90
58261;DHT22;44058;52.898;6.502;2022-07-04T02:45:51;13.30;99.90
58261;DHT22;44058;52.898;6.502;2022-07-04T02:48:16;13.20;99.90
58261;DHT22;44058;52.898;6.502;2022-07-04T02:50:42;13.10;99.90
58261;DHT22;44058;52.898;6.502;2022-07-04T02:53:08;12.90;99.90
58261;DHT22;44058;52.898;6.502;2022-07-04T02:55:33;12.90;99.90
58261;DHT22;44058;52.898;6.502;2022-07-04T02:57:59;12.90;99.90
58261;DHT22;44058;52.898;6.502;2022-07-04T03:00:25;13.00;99.90
58261;DHT22;44058;52.898;6.502;2022-07-04T03:02:50;13.10;99.90
58261;DHT22;44058;52.898;6.502;2022-07-04T03:05:16;13.20;99.90
58261;DHT22;44058;52.898;6.502;2022-07-04T03:07:41;13.20;99.90
58261;DHT22;44058;52.898;6.502;2022-07-04T03:10:08;13.30;99.90
58261;DHT22;44058;52.898;6.502;2022-07-04T03:12:33;13.30;99.90
58261;DHT22;44058;52.898;6.502;2022-07-04T03:14:59;13.30;99.90
58261;DHT22;44058;52.898;6.502;2022-07-04T03:17:25;13.30;99.90
58261;DHT22;44058;52.898;6.502;2022-07-04T03:19:51;13.40;99.90
58261;DHT22;44058;52.898;6.502;2022-07-04T03:22:16;13.40;99.90
58261;DHT22;44058;52.898;6.502;2022-07-04T03:24:42;13.40;99.90
58261;DHT22;44058;52.898;6.502;2022-07-04T03:27:08;13.40;99.90
58261;DHT22;44058;52.898;6.502;2022-07-04T03:29:34;13.40;99.90
58261;DHT22;44058;52.898;6.502;2022-07-04T03:32:00;13.50;99.90
58261;DHT22;44058;52.898;6.502;2022-07-04T03:34:26;13.50;99.90
58261;DHT22;44058;52.898;6.502;2022-07-04T03:36:52;13.40;99.90
58261;DHT22;44058;52.898;6.502;2022-07-04T03:39:17;13.30;99.90
58261;DHT22;44058;52.898;6.502;2022-07-04T03:41:44;13.20;99.90
58261;DHT22;44058;52.898;6.502;2022-07-04T03:44:10;13.30;99.90
58261;DHT22;44058;52.898;6.502;2022-07-04T03:46:35;13.30;99.90
58261;DHT22;44058;52.898;6.502;2022-07-04T03:49:01;13.40;99.90
58261;DHT22;44058;52.898;6.502;2022-07-04T03:51:27;13.40;99.90
58261;DHT22;44058;52.898;6.502;2022-07-04T03:53:52;13.40;99.90
58261;DHT22;44058;52.898;6.502;2022-07-04T03:56:18;13.50;99.90
58261;DHT22;44058;52.898;6.502;2022-07-04T03:58:44;13.50;99.90
58261;DHT22;44058;52.898;6.502;2022-07-04T04:01:14;13.60;99.90
58261;DHT22;44058;52.898;6.502;2022-07-04T04:03:40;13.60;99.90
58261;DHT22;44058;52.898;6.502;2022-07-04T04:06:25;13.70;99.90
58261;DHT22;44058;52.898;6.502;2022-07-04T04:08:50;13.70;99.90
58261;DHT22;44058;52.898;6.502;2022-07-04T04:11:16;13.70;99.90
58261;DHT22;44058;52.898;6.502;2022-07-04T04:13:42;13.70;99.90
58261;DHT22;44058;52.898;6.502;2022-07-04T04:16:07;13.60;99.90
58261;DHT22;44058;52.898;6.502;2022-07-04T04:18:33;13.50;99.90
58261;DHT22;44058;52.898;6.502;2022-07-04T04:20:58;13.40;99.90
58261;DHT22;44058;52.898;6.502;2022-07-04T04:23:24;13.30;99.90
58261;DHT22;44058;52.898;6.502;2022-07-04T04:25:50;13.20;99.90
58261;DHT22;44058;52.898;6.502;2022-07-04T04:28:16;13.20;99.90
58261;DHT22;44058;52.898;6.502;2022-07-04T04:30:42;13.20;99.90
58261;DHT22;44058;52.898;6.502;2022-07-04T04:33:07;13.30;99.90
58261;DHT22;44058;52.898;6.502;2022-07-04T04:35:33;13.30;99.90
58261;DHT22;44058;52.898;6.502;2022-07-04T04:37:58;13.50;99.90
58261;DHT22;44058;52.898;6.502;2022-07-04T04:40:24;13.50;99.90
58261;DHT22;44058;52.898;6.502;2022-07-04T04:42:49;13.70;99.90
58261;DHT22;44058;52.898;6.502;2022-07-04T04:45:15;13.80;99.90
58261;DHT22;44058;52.898;6.502;2022-07-04T04:47:41;13.90;99.90
58261;DHT22;44058;52.898;6.502;2022-07-04T04:50:08;14.00;99.90
58261;DHT22;44058;52.898;6.502;2022-07-04T04:52:37;14.10;99.90
58261;DHT22;44058;52.898;6.502;2022-07-04T04:55:03;14.20;99.90
58261;DHT22;44058;52.898;6.502;2022-07-04T04:57:29;14.30;99.90
58261;DHT22;44058;52.898;6.502;2022-07-04T04:59:54;14.40;99.90
58261;DHT22;44058;52.898;6.502;2022-07-04T05:02:20;14.40;99.90
58261;DHT22;44058;52.898;6.502;2022-07-04T05:04:45;14.50;99.90
58261;DHT22;44058;52.898;6.502;2022-07-04T05:07:11;14.50;99.90
58261;DHT22;44058;52.898;6.502;2022-07-04T05:09:37;14.50;99.90
58261;DHT22;44058;52.898;6.502;2022-07-04T05:12:03;14.60;99.90
58261;DHT22;44058;52.898;6.502;2022-07-04T05:14:29;14.70;99.90
58261;DHT22;44058;52.898;6.502;2022-07-04T05:16:54;14.70;99.90
58261;DHT22;44058;52.898;6.502;2022-07-04T05:19:20;14.80;99.90
58261;DHT22;44058;52.898;6.502;2022-07-04T05:21:45;14.80;99.90
58261;DHT22;44058;52.898;6.502;2022-07-04T05:24:11;14.90;99.90
58261;DHT22;44058;52.898;6.502;2022-07-04T05:26:37;14.90;99.90
58261;DHT22;44058;52.898;6.502;2022-07-04T05:29:03;15.00;99.90
58261;DHT22;44058;52.898;6.502;2022-07-04T05:31:29;15.00;99.90
58261;DHT22;44058;52.898;6.502;2022-07-04T05:33:55;15.10;99.90
58261;DHT22;44058;52.898;6.502;2022-07-04T05:36:24;15.00;99.90
58261;DHT22;44058;52.898;6.502;2022-07-04T05:38:50;15.20;99.90
58261;DHT22;44058;52.898;6.502;2022-07-04T05:41:15;15.20;99.90
58261;DHT22;44058;52.898;6.502;2022-07-04T05:43:41;15.20;99.90
58261;DHT22;44058;52.898;6.502;2022-07-04T05:46:07;15.20;99.90
58261;DHT22;44058;52.898;6.502;2022-07-04T05:48:32;15.30;99.90
58261;DHT22;44058;52.898;6.502;2022-07-04T05:50:58;15.30;99.90
58261;DHT22;44058;52.898;6.502;2022-07-04T05:53:23;15.40;99.90
58261;DHT22;44058;52.898;6.502;2022-07-04T05:55:49;15.40;99.90
58261;DHT22;44058;52.898;6.502;2022-07-04T05:58:14;15.40;99.90
58261;DHT22;44058;52.898;6.502;2022-07-04T06:00:41;15.50;99.90
58261;DHT22;44058;52.898;6.502;2022-07-04T06:03:07;15.50;99.90
58261;DHT22;44058;52.898;6.502;2022-07-04T06:05:33;15.60;99.90
58261;DHT22;44058;52.898;6.502;2022-07-04T06:07:58;15.70;99.90
58261;DHT22;44058;52.898;6.502;2022-07-04T06:10:24;15.80;99.90
58261;DHT22;44058;52.898;6.502;2022-07-04T06:12:50;15.80;99.90
58261;DHT22;44058;52.898;6.502;2022-07-04T06:15:15;15.90;99.90
58261;DHT22;44058;52.898;6.502;2022-07-04T06:17:41;15.90;99.90
58261;DHT22;44058;52.898;6.502;2022-07-04T06:20:07;16.00;99.90
58261;DHT22;44058;52.898;6.502;2022-07-04T06:22:40;16.10;99.90
58261;DHT22;44058;52.898;6.502;2022-07-04T06:25:06;16.10;99.90
58261;DHT22;44058;52.898;6.502;2022-07-04T06:27:32;16.20;99.90
58261;DHT22;44058;52.898;6.502;2022-07-04T06:29:58;16.20;99.90
58261;DHT22;44058;52.898;6.502;2022-07-04T06:32:25;16.20;99.90
58261;DHT22;44058;52.898;6.502;2022-07-04T06:34:51;16.30;99.90
58261;DHT22;44058;52.898;6.502;2022-07-04T06:37:52;16.30;99.90
58261;DHT22;44058;52.898;6.502;2022-07-04T06:40:18;16.50;99.90
58261;DHT22;44058;52.898;6.502;2022-07-04T06:42:43;16.50;99.90
58261;DHT22;44058;52.898;6.502;2022-07-04T06:45:09;16.50;99.90
58261;DHT22;44058;52.898;6.502;2022-07-04T06:47:35;16.70;99.90
58261;DHT22;44058;52.898;6.502;2022-07-04T06:50:01;16.80;99.90
58261;DHT22;44058;52.898;6.502;2022-07-04T06:52:26;16.80;99.90
58261;DHT22;44058;52.898;6.502;2022-07-04T06:54:52;16.80;99.90
58261;DHT22;44058;52.898;6.502;2022-07-04T06:57:17;16.90;99.90
58261;DHT22;44058;52.898;6.502;2022-07-04T06:59:43;17.00;99.90
58261;DHT22;44058;52.898;6.502;2022-07-04T07:02:09;17.00;99.90
58261;DHT22;44058;52.898;6.502;2022-07-04T07:04:35;17.10;99.90
58261;DHT22;44058;52.898;6.502;2022-07-04T07:07:03;17.20;99.90
58261;DHT22;44058;52.898;6.502;2022-07-04T07:09:28;17.20;99.90
58261;DHT22;44058;52.898;6.502;2022-07-04T07:11:54;17.30;99.90
58261;DHT22;44058;52.898;6.502;2022-07-04T07:14:19;17.30;99.90
58261;DHT22;44058;52.898;6.502;2022-07-04T07:16:45;17.40;99.90
58261;DHT22;44058;52.898;6.502;2022-07-04T07:19:11;17.50;99.90
58261;DHT22;44058;52.898;6.502;2022-07-04T07:21:36;17.60;99.90
58261;DHT22;44058;52.898;6.502;2022-07-04T07:24:02;17.70;99.90
58261;DHT22;44058;52.898;6.502;2022-07-04T07:26:29;17.80;99.90
58261;DHT22;44058;52.898;6.502;2022-07-04T07:28:55;17.80;99.90
58261;DHT22;44058;52.898;6.502;2022-07-04T07:31:21;17.90;99.90
58261;DHT22;44058;52.898;6.502;2022-07-04T07:33:47;17.90;99.90
58261;DHT22;44058;52.898;6.502;2022-07-04T07:36:13;17.90;99.90
58261;DHT22;44058;52.898;6.502;2022-07-04T07:38:38;17.90;99.90
58261;DHT22;44058;52.898;6.502;2022-07-04T07:41:07;18.00;99.90
58261;DHT22;44058;52.898;6.502;2022-07-04T07:43:32;18.00;99.90
58261;DHT22;44058;52.898;6.502;2022-07-04T07:45:58;18.00;99.90
58261;DHT22;44058;52.898;6.502;2022-07-04T07:48:24;18.10;99.90
58261;DHT22;44058;52.898;6.502;2022-07-04T07:50:50;18.20;99.90
58261;DHT22;44058;52.898;6.502;2022-07-04T07:53:15;18.10;99.90
58261;DHT22;44058;52.898;6.502;2022-07-04T07:55:41;18.10;99.90
58261;DHT22;44058;52.898;6.502;2022-07-04T07:58:07;18.10;99.90
58261;DHT22;44058;52.898;6.502;2022-07-04T08:00:33;18.20;99.90
58261;DHT22;44058;52.898;6.502;2022-07-04T08:02:58;18.20;99.90
58261;DHT22;44058;52.898;6.502;2022-07-04T08:05:43;18.20;99.90
58261;DHT22;44058;52.898;6.502;2022-07-04T08:08:08;18.30;99.90
58261;DHT22;44058;52.898;6.502;2022-07-04T08:10:36;18.40;99.90
58261;DHT22;44058;52.898;6.502;2022-07-04T08:13:03;18.50;99.90
58261;DHT22;44058;52.898;6.502;2022-07-04T08:15:29;18.30;99.90
58261;DHT22;44058;52.898;6.502;2022-07-04T08:17:54;18.40;99.90
58261;DHT22;44058;52.898;6.502;2022-07-04T08:20:20;18.40;99.90
58261;DHT22;44058;52.898;6.502;2022-07-04T08:22:46;18.60;99.90
58261;DHT22;44058;52.898;6.502;2022-07-04T08:25:12;18.70;99.90
58261;DHT22;44058;52.898;6.502;2022-07-04T08:27:39;18.70;99.90
58261;DHT22;44058;52.898;6.502;2022-07-04T08:30:05;18.80;99.90
58261;DHT22;44058;52.898;6.502;2022-07-04T08:32:32;18.90;99.90
58261;DHT22;44058;52.898;6.502;2022-07-04T08:34:57;19.00;99.90
58261;DHT22;44058;52.898;6.502;2022-07-04T08:37:26;19.00;99.90
58261;DHT22;44058;52.898;6.502;2022-07-04T08:39:51;19.10;99.90
58261;DHT22;44058;52.898;6.502;2022-07-04T08:42:18;19.00;99.90
58261;DHT22;44058;52.898;6.502;2022-07-04T08:44:47;19.00;99.90
58261;DHT22;44058;52.898;6.502;2022-07-04T08:47:15;19.20;99.90
58261;DHT22;44058;52.898;6.502;2022-07-04T08:49:42;19.20;99.90
58261;DHT22;44058;52.898;6.502;2022-07-04T08:52:10;19.30;99.90
58261;DHT22;44058;52.898;6.502;2022-07-04T08:54:36;19.40;99.90
58261;DHT22;44058;52.898;6.502;2022-07-04T08:57:21;19.50;99.90
58261;DHT22;44058;52.898;6.502;2022-07-04T09:00:05;19.60;99.90
58261;DHT22;44058;52.898;6.502;2022-07-04T09:02:33;19.50;99.90
58261;DHT22;44058;52.898;6.502;2022-07-04T09:04:59;19.40;99.90
58261;DHT22;44058;52.898;6.502;2022-07-04T09:07:26;19.30;99.90
58261;DHT22;44058;52.898;6.502;2022-07-04T09:09:53;19.20;99.90
58261;DHT22;44058;52.898;6.502;2022-07-04T09:12:19;19.10;99.90
58261;DHT22;44058;52.898;6.502;2022-07-04T09:14:45;18.90;99.90
58261;DHT22;44058;52.898;6.502;2022-07-04T09:17:11;18.90;99.90
58261;DHT22;44058;52.898;6.502;2022-07-04T09:19:36;18.80;99.90
58261;DHT22;44058;52.898;6.502;2022-07-04T09:22:07;18.70;99.90
58261;DHT22;44058;52.898;6.502;2022-07-04T09:24:44;18.80;99.90
58261;DHT22;44058;52.898;6.502;2022-07-04T09:27:11;18.90;99.90
58261;DHT22;44058;52.898;6.502;2022-07-04T09:29:58;19.10;99.90
58261;DHT22;44058;52.898;6.502;2022-07-04T09:32:57;19.20;99.90
58261;DHT22;44058;52.898;6.502;2022-07-04T09:35:21;19.40;99.90
58261;DHT22;44058;52.898;6.502;2022-07-04T09:37:48;19.40;99.90
58261;DHT22;44058;52.898;6.502;2022-07-04T09:40:27;19.30;99.90
58261;DHT22;44058;52.898;6.502;2022-07-04T09:42:54;19.30;99.90
58261;DHT22;44058;52.898;6.502;2022-07-04T09:45:20;19.30;99.90
58261;DHT22;44058;52.898;6.502;2022-07-04T09:47:50;19.50;99.90
58261;DHT22;44058;52.898;6.502;2022-07-04T09:50:17;19.80;99.90
58261;DHT22;44058;52.898;6.502;2022-07-04T09:52:58;20.00;99.90
58261;DHT22;44058;52.898;6.502;2022-07-04T09:55:28;20.00;99.90
58261;DHT22;44058;52.898;6.502;2022-07-04T09:57:55;20.10;99.90
58261;DHT22;44058;52.898;6.502;2022-07-04T10:00:22;20.30;99.90
58261;DHT22;44058;52.898;6.502;2022-07-04T10:02:48;20.40;99.90
58261;DHT22;44058;52.898;6.502;2022-07-04T10:05:22;20.40;99.90
58261;DHT22;44058;52.898;6.502;2022-07-04T10:07:48;20.50;99.90
58261;DHT22;44058;52.898;6.502;2022-07-04T10:12:49;20.40;99.90
58261;DHT22;44058;52.898;6.502;2022-07-04T10:15:16;20.30;99.90
58261;DHT22;44058;52.898;6.502;2022-07-04T10:17:41;20.30;99.90
58261;DHT22;44058;52.898;6.502;2022-07-04T10:20:07;20.30;99.90
58261;DHT22;44058;52.898;6.502;2022-07-04T10:22:33;20.20;99.90
58261;DHT22;44058;52.898;6.502;2022-07-04T10:24:59;20.00;99.90
58261;DHT22;44058;52.898;6.502;2022-07-04T10:27:25;19.90;99.90
58261;DHT22;44058;52.898;6.502;2022-07-04T10:29:50;19.80;99.90
58261;DHT22;44058;52.898;6.502;2022-07-04T10:32:16;19.70;99.90
58261;DHT22;44058;52.898;6.502;2022-07-04T10:34:42;19.70;99.90
58261;DHT22;44058;52.898;6.502;2022-07-04T10:37:09;19.60;99.90
58261;DHT22;44058;52.898;6.502;2022-07-04T10:39:35;19.50;99.90
58261;DHT22;44058;52.898;6.502;2022-07-04T10:42:00;19.50;99.90
58261;DHT22;44058;52.898;6.502;2022-07-04T10:44:27;19.50;99.90
58261;DHT22;44058;52.898;6.502;2022-07-04T10:47:00;19.60;99.90
58261;DHT22;44058;52.898;6.502;2022-07-04T10:49:27;19.90;99.90
58261;DHT22;44058;52.898;6.502;2022-07-04T10:56:51;20.70;99.90
58261;DHT22;44058;52.898;6.502;2022-07-04T11:01:49;21.00;99.90
58261;DHT22;44058;52.898;6.502;2022-07-04T11:07:00;21.00;99.90
58261;DHT22;44058;52.898;6.502;2022-07-04T11:09:26;21.10;99.90
58261;DHT22;44058;52.898;6.502;2022-07-04T11:11:55;21.10;99.90
58261;DHT22;44058;52.898;6.502;2022-07-04T11:14:40;21.20;99.90
58261;DHT22;44058;52.898;6.502;2022-07-04T11:17:07;21.30;99.90
58261;DHT22;44058;52.898;6.502;2022-07-04T11:19:33;21.40;99.90
58261;DHT22;44058;52.898;6.502;2022-07-04T11:21:59;21.20;99.90
58261;DHT22;44058;52.898;6.502;2022-07-04T11:24:25;21.10;99.90
58261;DHT22;44058;52.898;6.502;2022-07-04T11:26:51;21.00;99.90
58261;DHT22;44058;52.898;6.502;2022-07-04T11:29:17;20.90;99.90
58261;DHT22;44058;52.898;6.502;2022-07-04T11:31:44;21.00;99.90
58261;DHT22;44058;52.898;6.502;2022-07-04T11:34:10;20.90;99.90
58261;DHT22;44058;52.898;6.502;2022-07-04T11:36:37;21.20;99.90
58261;DHT22;44058;52.898;6.502;2022-07-04T11:39:07;21.30;99.90
58261;DHT22;44058;52.898;6.502;2022-07-04T11:41:37;21.30;99.90
58261;DHT22;44058;52.898;6.502;2022-07-04T11:44:22;21.50;99.90
58261;DHT22;44058;52.898;6.502;2022-07-04T11:47:08;21.30;99.90
58261;DHT22;44058;52.898;6.502;2022-07-04T11:49:35;21.20;99.90
58261;DHT22;44058;52.898;6.502;2022-07-04T11:52:01;21.40;99.90
58261;DHT22;44058;52.898;6.502;2022-07-04T11:54:27;21.30;99.90
58261;DHT22;44058;52.898;6.502;2022-07-04T11:57:07;21.20;99.90
58261;DHT22;44058;52.898;6.502;2022-07-04T11:59:33;21.30;99.90
58261;DHT22;44058;52.898;6.502;2022-07-04T12:01:58;21.40;99.90
58261;DHT22;44058;52.898;6.502;2022-07-04T12:04:34;21.50;99.90
58261;DHT22;44058;52.898;6.502;2022-07-04T12:07:04;21.50;99.90
58261;DHT22;44058;52.898;6.502;2022-07-04T12:09:33;21.30;99.90
58261;DHT22;44058;52.898;6.502;2022-07-04T12:11:59;21.40;99.90
58261;DHT22;44058;52.898;6.502;2022-07-04T12:14:25;21.50;99.90
58261;DHT22;44058;52.898;6.502;2022-07-04T12:19:34;21.90;99.90
58261;DHT22;44058;52.898;6.502;2022-07-04T12:22:00;22.00;99.20
58261;DHT22;44058;52.898;6.502;2022-07-04T12:24:26;22.20;99.70
58261;DHT22;44058;52.898;6.502;2022-07-04T12:26:52;22.20;99.90
58261;DHT22;44058;52.898;6.502;2022-07-04T12:29:21;21.90;98.10
58261;DHT22;44058;52.898;6.502;2022-07-04T12:31:50;21.90;99.90
58261;DHT22;44058;52.898;6.502;2022-07-04T12:34:17;21.90;99.90
58261;DHT22;44058;52.898;6.502;2022-07-04T12:36:50;22.10;99.90
58261;DHT22;44058;52.898;6.502;2022-07-04T12:44:41;21.70;99.90
58261;DHT22;44058;52.898;6.502;2022-07-04T12:47:07;21.80;99.90
58261;DHT22;44058;52.898;6.502;2022-07-04T12:49:33;21.90;99.90
58261;DHT22;44058;52.898;6.502;2022-07-04T12:52:12;22.00;98.60
58261;DHT22;44058;52.898;6.502;2022-07-04T12:54:38;22.10;99.90
58261;DHT22;44058;52.898;6.502;2022-07-04T12:57:14;21.90;97.90
58261;DHT22;44058;52.898;6.502;2022-07-04T12:59:41;22.00;99.90
58261;DHT22;44058;52.898;6.502;2022-07-04T13:02:07;22.10;99.90
58261;DHT22;44058;52.898;6.502;2022-07-04T13:04:35;22.20;99.90
58261;DHT22;44058;52.898;6.502;2022-07-04T13:07:11;22.00;98.70
58261;DHT22;44058;52.898;6.502;2022-07-04T13:09:37;22.00;99.70
58261;DHT22;44058;52.898;6.502;2022-07-04T13:12:03;22.00;99.70
58261;DHT22;44058;52.898;6.502;2022-07-04T13:14:47;22.00;99.90
58261;DHT22;44058;52.898;6.502;2022-07-04T13:17:12;21.80;99.90
58261;DHT22;44058;52.898;6.502;2022-07-04T13:19:38;21.80;99.90
58261;DHT22;44058;52.898;6.502;2022-07-04T13:22:04;22.00;99.90
58261;DHT22;44058;52.898;6.502;2022-07-04T13:24:29;22.00;99.90
58261;DHT22;44058;52.898;6.502;2022-07-04T13:26:55;21.80;99.90
58261;DHT22;44058;52.898;6.502;2022-07-04T13:29:21;21.50;99.90
58261;DHT22;44058;52.898;6.502;2022-07-04T13:31:48;21.50;99.90
58261;DHT22;44058;52.898;6.502;2022-07-04T13:34:14;21.70;99.20
58261;DHT22;44058;52.898;6.502;2022-07-04T13:36:39;21.60;99.90
58261;DHT22;44058;52.898;6.502;2022-07-04T13:39:05;21.60;99.10
58261;DHT22;44058;52.898;6.502;2022-07-04T13:41:34;21.60;99.30
58261;DHT22;44058;52.898;6.502;2022-07-04T13:44:00;21.60;99.30
58261;DHT22;44058;52.898;6.502;2022-07-04T13:46:26;21.70;99.90
58261;DHT22;44058;52.898;6.502;2022-07-04T13:48:52;21.80;99.90
58261;DHT22;44058;52.898;6.502;2022-07-04T13:51:17;21.90;99.90
58261;DHT22;44058;52.898;6.502;2022-07-04T13:53:43;22.00;99.90
58261;DHT22;44058;52.898;6.502;2022-07-04T13:56:09;22.00;99.90
58261;DHT22;44058;52.898;6.502;2022-07-04T13:58:34;21.80;99.90
58261;DHT22;44058;52.898;6.502;2022-07-04T14:01:01;21.50;99.90
58261;DHT22;44058;52.898;6.502;2022-07-04T14:03:29;21.50;99.90
58261;DHT22;44058;52.898;6.502;2022-07-04T14:05:54;21.40;99.90
58261;DHT22;44058;52.898;6.502;2022-07-04T14:08:20;21.30;99.90
58261;DHT22;44058;52.898;6.502;2022-07-04T14:10:46;21.00;99.90
58261;DHT22;44058;52.898;6.502;2022-07-04T14:13:11;21.00;99.90
58261;DHT22;44058;52.898;6.502;2022-07-04T14:15:37;21.30;99.90
58261;DHT22;44058;52.898;6.502;2022-07-04T14:18:03;21.50;99.90
58261;DHT22;44058;52.898;6.502;2022-07-04T14:20:32;21.50;99.90
58261;DHT22;44058;52.898;6.502;2022-07-04T14:22:58;21.30;99.90
58261;DHT22;44058;52.898;6.502;2022-07-04T14:25:23;21.20;99.90
58261;DHT22;44058;52.898;6.502;2022-07-04T14:27:49;21.40;99.90
58261;DHT22;44058;52.898;6.502;2022-07-04T14:30:14;21.50;99.90
58261;DHT22;44058;52.898;6.502;2022-07-04T14:32:40;21.60;99.90
58261;DHT22;44058;52.898;6.502;2022-07-04T14:35:06;21.70;99.90
58261;DHT22;44058;52.898;6.502;2022-07-04T14:37:31;21.50;99.90
58261;DHT22;44058;52.898;6.502;2022-07-04T14:39:57;21.60;99.90
58261;DHT22;44058;52.898;6.502;2022-07-04T14:42:23;21.70;99.90
58261;DHT22;44058;52.898;6.502;2022-07-04T14:44:49;21.60;96.50
58261;DHT22;44058;52.898;6.502;2022-07-04T14:47:15;21.30;97.50
58261;DHT22;44058;52.898;6.502;2022-07-04T14:49:40;21.30;99.90
58261;DHT22;44058;52.898;6.502;2022-07-04T14:52:06;21.40;99.90
58261;DHT22;44058;52.898;6.502;2022-07-04T14:54:32;21.20;99.90
58261;DHT22;44058;52.898;6.502;2022-07-04T14:56:58;21.20;99.90
58261;DHT22;44058;52.898;6.502;2022-07-04T14:59:23;21.10;99.90
58261;DHT22;44058;52.898;6.502;2022-07-04T15:01:49;21.30;99.90
58261;DHT22;44058;52.898;6.502;2022-07-04T15:04:15;21.40;99.90
58261;DHT22;44058;52.898;6.502;2022-07-04T15:06:41;21.30;99.90
58261;DHT22;44058;52.898;6.502;2022-07-04T15:09:06;21.10;99.90
58261;DHT22;44058;52.898;6.502;2022-07-04T15:11:32;21.20;99.90
58261;DHT22;44058;52.898;6.502;2022-07-04T15:13:58;21.40;99.90
58261;DHT22;44058;52.898;6.502;2022-07-04T15:16:24;21.70;99.90
58261;DHT22;44058;52.898;6.502;2022-07-04T15:18:50;21.60;99.90
58261;DHT22;44058;52.898;6.502;2022-07-04T15:21:16;21.40;99.90
58261;DHT22;44058;52.898;6.502;2022-07-04T15:24:00;21.60;99.90
58261;DHT22;44058;52.898;6.502;2022-07-04T15:26:48;21.30;99.90
58261;DHT22;44058;52.898;6.502;2022-07-04T15:29:17;21.30;99.90
58261;DHT22;44058;52.898;6.502;2022-07-04T15:31:44;21.10;99.90
58261;DHT22;44058;52.898;6.502;2022-07-04T15:34:16;20.80;99.90
58261;DHT22;44058;52.898;6.502;2022-07-04T15:36:42;20.90;99.90
58261;DHT22;44058;52.898;6.502;2022-07-04T15:39:08;21.00;99.90
58261;DHT22;44058;52.898;6.502;2022-07-04T15:41:34;21.00;99.90
58261;DHT22;44058;52.898;6.502;2022-07-04T15:44:01;20.80;99.90
58261;DHT22;44058;52.898;6.502;2022-07-04T15:46:27;20.70;99.90
58261;DHT22;44058;52.898;6.502;2022-07-04T15:48:53;20.80;99.90
58261;DHT22;44058;52.898;6.502;2022-07-04T15:51:19;21.00;99.90